createdAt,value
2023-05-14T00:02:09.993Z,36.58
2023-05-14T00:07:40.329Z,36.78
2023-05-14T00:13:29.502Z,36.90
2023-05-14T00:19:16.625Z,37.02
2023-05-14T00:24:25.633Z,37.05
2023-05-14T00:30:14.179Z,37.10
2023-05-14T00:35:59.113Z,37.23
2023-05-14T00:41:55.316Z,37.20
2023-05-14T00:47:54.969Z,37.37
2023-05-14T00:54:22.927Z,37.46
2023-05-14T00:59:42.830Z,37.48
2023-05-14T01:04:54.036Z,37.58
2023-05-14T01:10:22.853Z,37.66
2023-05-14T01:21:41.021Z,37.81
2023-05-14T01:26:51.501Z,37.79
2023-05-14T01:32:45.118Z,37.83
2023-05-14T01:38:42.544Z,37.93
2023-05-14T01:44:40.305Z,37.96
2023-05-14T01:49:47.478Z,37.94
2023-05-14T01:55:35.117Z,38.02
2023-05-14T02:07:02.698Z,38.09
2023-05-14T02:12:50.182Z,38.12
2023-05-14T02:18:20.022Z,38.22
2023-05-14T02:24:08.482Z,38.30
2023-05-14T02:29:50.855Z,38.35
2023-05-14T02:35:36.188Z,38.39
2023-05-14T02:41:24.881Z,38.45
2023-05-14T02:47:46.536Z,38.53
2023-05-14T02:53:46.655Z,38.56
2023-05-14T02:59:30.006Z,38.61
2023-05-14T03:06:08.088Z,38.75
2023-05-14T03:12:06.573Z,38.84
2023-05-14T03:17:57.281Z,38.93
2023-05-14T03:30:35.035Z,39.13
2023-05-14T03:42:51.642Z,39.15
2023-05-14T03:48:45.930Z,39.34
2023-05-14T04:05:09.155Z,39.64
2023-05-14T04:10:53.444Z,39.77
2023-05-14T04:16:03.751Z,40.00
2023-05-14T04:21:12.619Z,40.26
2023-05-14T04:26:22.998Z,40.39
2023-05-14T04:31:29.479Z,40.58
2023-05-14T04:36:36.950Z,40.54
2023-05-14T04:41:52.600Z,40.76
2023-05-14T04:47:10.730Z,41.00
2023-05-14T04:52:40.484Z,41.08
2023-05-14T04:58:25.225Z,41.16
2023-05-14T05:03:37.797Z,41.17
2023-05-14T05:08:51.560Z,41.43
2023-05-14T05:14:02.699Z,41.41
2023-05-14T05:19:50.566Z,41.35
2023-05-14T05:25:28.322Z,41.34
2023-05-14T05:30:42.774Z,41.58
2023-05-14T05:37:52.274Z,41.58
2023-05-14T05:41:19.292Z,41.58
2023-05-14T05:47:06.848Z,41.73
2023-05-14T05:53:21.719Z,41.67
2023-05-14T05:58:24.154Z,41.53
2023-05-14T06:03:55.160Z,41.17
2023-05-14T06:09:29.317Z,41.20
2023-05-14T06:15:18.025Z,41.01
2023-05-14T06:19:57.059Z,41.34
2023-05-14T06:25:26.693Z,41.40
2023-05-14T06:30:51.711Z,41.55
2023-05-14T06:36:51.052Z,41.38
2023-05-14T06:41:49.668Z,41.46
2023-05-14T06:47:36.959Z,41.54
2023-05-14T06:52:51.847Z,41.30
2023-05-14T06:58:49.494Z,41.35
2023-05-14T07:03:51.903Z,41.16
2023-05-14T07:08:59.508Z,41.20
2023-05-14T07:14:19.504Z,41.12
2023-05-14T07:19:28.685Z,44.36
2023-05-14T07:24:35.832Z,43.98
2023-05-14T07:29:43.100Z,41.91
2023-05-14T07:34:50.622Z,41.11
2023-05-14T07:39:57.851Z,40.65
2023-05-14T07:45:05.045Z,40.48
2023-05-14T07:50:12.264Z,40.17
2023-05-14T07:55:19.550Z,40.04
2023-05-14T08:00:26.962Z,39.92
2023-05-14T08:05:34.055Z,39.61
2023-05-14T08:10:42.137Z,39.44
2023-05-14T08:15:49.504Z,39.39
2023-05-14T08:20:57.146Z,39.30
2023-05-14T08:26:04.538Z,39.55
2023-05-14T08:31:12.031Z,39.14
2023-05-14T08:36:19.440Z,39.20
2023-05-14T08:41:26.736Z,39.17
2023-05-14T08:46:33.938Z,39.16
2023-05-14T08:51:41.338Z,39.03
2023-05-14T08:56:52.014Z,39.29
2023-05-14T09:01:56.645Z,39.40
2023-05-14T09:07:09.941Z,39.24
2023-05-14T09:12:19.956Z,38.87
2023-05-14T09:17:27.511Z,38.50
2023-05-14T09:22:34.807Z,38.34
2023-05-14T09:27:41.999Z,38.33
2023-05-14T09:32:49.318Z,38.28
2023-05-14T09:37:56.704Z,38.07
2023-05-14T09:43:03.971Z,38.17
2023-05-14T09:48:11.340Z,38.12
2023-05-14T09:53:18.526Z,38.03
2023-05-14T09:58:25.706Z,38.03
2023-05-14T10:03:33.108Z,38.00
2023-05-14T10:08:40.448Z,37.95
2023-05-14T10:13:47.710Z,37.82
2023-05-14T10:18:57.137Z,37.72
2023-05-14T10:24:02.248Z,37.65
2023-05-14T10:29:09.471Z,37.48
2023-05-14T10:34:17.065Z,37.36
2023-05-14T10:39:28.809Z,37.33
2023-05-14T10:44:36.244Z,37.28
2023-05-14T10:49:47.156Z,37.26
2023-05-14T10:54:52.718Z,37.28
2023-05-14T11:00:06.139Z,37.36
2023-05-14T11:05:13.440Z,37.31
2023-05-14T11:10:25.157Z,37.36
2023-05-14T11:15:32.360Z,37.25
2023-05-14T11:20:39.940Z,37.19
2023-05-14T11:25:47.549Z,37.21
2023-05-14T11:30:54.958Z,37.03
2023-05-14T11:36:02.466Z,37.01
2023-05-14T11:41:09.896Z,37.10
2023-05-14T11:46:17.300Z,37.24
2023-05-14T11:51:27.939Z,37.35
2023-05-14T11:56:35.130Z,37.44
2023-05-14T12:01:45.211Z,37.66
2023-05-14T12:06:51.077Z,37.41
2023-05-14T12:11:58.607Z,37.45
2023-05-14T12:17:05.946Z,37.56
2023-05-14T12:22:13.210Z,37.43
2023-05-14T12:27:20.718Z,37.44
2023-05-14T12:32:32.277Z,37.38
2023-05-14T12:37:56.269Z,37.41
2023-05-14T12:43:03.992Z,37.50
2023-05-14T12:48:11.337Z,37.58
2023-05-14T12:53:18.644Z,37.42
2023-05-14T12:58:29.108Z,37.37
2023-05-14T13:03:40.098Z,37.35
2023-05-14T13:08:50.823Z,37.50
2023-05-14T13:13:58.196Z,37.33
2023-05-14T13:19:05.547Z,37.34
2023-05-14T13:24:12.954Z,37.42
2023-05-14T13:29:23.103Z,37.45
2023-05-14T13:34:29.635Z,37.39
2023-05-14T13:39:37.011Z,37.39
2023-05-14T13:44:44.383Z,37.42
2023-05-14T13:49:51.653Z,37.50
2023-05-14T13:54:59.020Z,37.35
2023-05-14T14:00:06.590Z,37.34
2023-05-14T14:05:14.061Z,37.39
2023-05-14T14:10:21.227Z,37.32
2023-05-14T14:15:28.774Z,37.33
2023-05-14T14:20:39.097Z,37.28
2023-05-14T14:25:44.616Z,37.28
2023-05-14T14:30:53.301Z,37.29
2023-05-14T14:36:06.818Z,37.33
2023-05-14T14:41:14.215Z,37.39
2023-05-14T14:46:24.317Z,37.58
2023-05-14T14:51:31.825Z,37.65
2023-05-14T14:56:39.449Z,37.62
2023-05-14T15:01:51.717Z,37.81
2023-05-14T15:06:59.308Z,37.58
2023-05-14T15:12:15.236Z,37.67
2023-05-14T15:17:23.251Z,37.66
2023-05-14T15:22:37.238Z,37.79
2023-05-14T15:27:51.151Z,37.66
2023-05-14T15:33:03.056Z,37.88
2023-05-14T15:38:14.273Z,37.99
2023-05-14T15:43:34.047Z,38.16
2023-05-14T15:48:45.433Z,38.60
2023-05-14T15:54:02.189Z,39.00
2023-05-14T15:59:13.289Z,38.88
2023-05-14T16:04:25.133Z,39.11
2023-05-14T16:09:41.634Z,38.94
2023-05-14T16:16:08.102Z,39.10
2023-05-14T16:20:17.351Z,39.34
2023-05-14T16:25:29.726Z,39.68
2023-05-14T16:30:47.299Z,39.35
2023-05-14T16:36:30.450Z,39.20
2023-05-14T16:41:40.348Z,39.33
2023-05-14T16:46:54.091Z,39.46
2023-05-14T16:52:17.201Z,39.50
2023-05-14T16:57:33.058Z,39.36
2023-05-14T17:02:46.112Z,39.11
2023-05-14T17:08:03.263Z,39.34
2023-05-14T17:13:10.128Z,39.21
2023-05-14T17:19:17.176Z,39.41
2023-05-14T17:24:20.495Z,39.03
2023-05-14T17:29:35.358Z,39.12
2023-05-14T17:34:56.997Z,38.85
2023-05-14T17:40:24.789Z,39.01
2023-05-14T17:45:18.611Z,38.88
2023-05-14T17:50:35.366Z,39.27
2023-05-14T17:55:47.226Z,39.57
2023-05-14T18:00:58.616Z,39.88
2023-05-14T18:06:35.517Z,39.58
2023-05-14T18:11:33.362Z,39.42
2023-05-14T18:16:45.110Z,38.66
2023-05-14T18:22:31.408Z,38.43
2023-05-14T18:27:40.321Z,38.47
2023-05-14T18:32:57.136Z,38.03
2023-05-14T18:38:07.039Z,37.92
2023-05-14T18:43:15.894Z,37.58
2023-05-14T18:48:35.989Z,37.34
2023-05-14T18:53:37.193Z,37.30
2023-05-14T18:58:45.055Z,37.34
2023-05-14T19:03:56.346Z,37.10
2023-05-14T19:09:06.141Z,37.05
2023-05-14T19:14:19.986Z,36.78
2023-05-14T19:19:32.842Z,36.90
2023-05-14T19:24:40.817Z,36.89
2023-05-14T19:29:51.964Z,37.06
2023-05-14T19:34:59.935Z,36.90
2023-05-14T19:40:07.992Z,36.85
2023-05-14T19:45:20.214Z,36.74
2023-05-14T19:50:30.673Z,36.68
2023-05-14T19:55:41.945Z,36.63
2023-05-14T20:00:54.125Z,36.55
2023-05-14T20:06:06.087Z,36.07
2023-05-14T20:11:27.218Z,35.93
2023-05-14T20:17:25.429Z,35.93
2023-05-14T20:22:41.107Z,35.91
2023-05-14T20:28:52.315Z,35.98
2023-05-14T20:33:37.516Z,35.92
2023-05-14T20:39:15.453Z,36.07
2023-05-14T20:44:11.363Z,35.89
2023-05-14T20:50:00.345Z,35.72
2023-05-14T20:56:50.037Z,35.83
2023-05-14T21:02:41.286Z,35.92
2023-05-14T21:08:06.932Z,35.87
2023-05-14T21:13:44.719Z,35.99
2023-05-14T21:19:17.452Z,35.91
2023-05-14T21:24:16.477Z,35.99
2023-05-14T21:29:38.289Z,35.97
2023-05-14T21:35:03.730Z,35.92
2023-05-14T21:40:20.190Z,35.89
2023-05-14T21:45:33.918Z,35.87
2023-05-14T21:50:41.495Z,35.97
2023-05-14T21:55:55.283Z,35.92
2023-05-14T22:01:02.846Z,35.74
2023-05-14T22:06:25.135Z,35.63
2023-05-14T22:11:32.552Z,35.62
2023-05-14T22:16:39.979Z,35.53
2023-05-14T22:21:47.711Z,35.62
2023-05-14T22:26:55.299Z,35.56
2023-05-14T22:32:24.265Z,35.48
2023-05-14T22:37:19.364Z,35.58
2023-05-14T22:42:32.007Z,35.71
2023-05-14T22:47:39.701Z,35.70
2023-05-14T22:53:08.626Z,35.68
2023-05-14T22:58:00.487Z,35.49
2023-05-14T23:03:48.079Z,35.49
2023-05-14T23:10:15.634Z,35.30
2023-05-14T23:24:04.504Z,35.47
2023-05-14T23:40:10.114Z,35.66
2023-05-14T23:44:29.917Z,35.65
2023-05-14T23:57:07.672Z,35.79
